sensor_id;sensor_type;location;lat;lon;timestamp;P1;durP1;ratioP1;P2;durP2;ratioP2
55330;SDS011;58851;42.984;20.336;2023-02-15T00:00:12;53.67;;;32.10;;
55330;SDS011;58851;42.984;20.336;2023-02-15T00:02:38;53.10;;;31.58;;
55330;SDS011;58851;42.984;20.336;2023-02-15T00:05:04;55.50;;;35.20;;
55330;SDS011;58851;42.984;20.336;2023-02-15T00:07:30;60.53;;;36.58;;
55330;SDS011;58851;42.984;20.336;2023-02-15T00:09:56;62.55;;;38.17;;
55330;SDS011;58851;42.984;20.336;2023-02-15T00:12:22;72.95;;;39.53;;
55330;SDS011;58851;42.984;20.336;2023-02-15T00:14:47;65.07;;;40.05;;
55330;SDS011;58851;42.984;20.336;2023-02-15T00:17:13;80.80;;;47.47;;
55330;SDS011;58851;42.984;20.336;2023-02-15T00:19:39;80.07;;;47.03;;
55330;SDS011;58851;42.984;20.336;2023-02-15T00:22:05;78.32;;;47.45;;
55330;SDS011;58851;42.984;20.336;2023-02-15T00:24:31;59.63;;;37.03;;
55330;SDS011;58851;42.984;20.336;2023-02-15T00:26:57;42.88;;;25.48;;
55330;SDS011;58851;42.984;20.336;2023-02-15T00:29:23;65.93;;;38.20;;
55330;SDS011;58851;42.984;20.336;2023-02-15T00:31:49;71.30;;;41.25;;
55330;SDS011;58851;42.984;20.336;2023-02-15T00:34:16;60.17;;;35.95;;
55330;SDS011;58851;42.984;20.336;2023-02-15T00:36:44;72.85;;;41.72;;
55330;SDS011;58851;42.984;20.336;2023-02-15T00:39:11;66.50;;;41.60;;
55330;SDS011;58851;42.984;20.336;2023-02-15T00:41:38;52.53;;;30.85;;
55330;SDS011;58851;42.984;20.336;2023-02-15T00:44:04;55.33;;;32.88;;
55330;SDS011;58851;42.984;20.336;2023-02-15T00:46:30;70.35;;;41.20;;
55330;SDS011;58851;42.984;20.336;2023-02-15T00:48:56;68.97;;;42.05;;
55330;SDS011;58851;42.984;20.336;2023-02-15T00:51:22;48.10;;;28.58;;
55330;SDS011;58851;42.984;20.336;2023-02-15T00:53:48;51.90;;;32.88;;
55330;SDS011;58851;42.984;20.336;2023-02-15T00:56:14;54.22;;;33.30;;
55330;SDS011;58851;42.984;20.336;2023-02-15T00:58:40;56.60;;;36.03;;
55330;SDS011;58851;42.984;20.336;2023-02-15T01:01:07;64.00;;;36.50;;
55330;SDS011;58851;42.984;20.336;2023-02-15T01:03:35;53.97;;;31.90;;
55330;SDS011;58851;42.984;20.336;2023-02-15T01:06:01;53.20;;;34.42;;
55330;SDS011;58851;42.984;20.336;2023-02-15T01:08:28;46.63;;;30.50;;
55330;SDS011;58851;42.984;20.336;2023-02-15T01:10:54;54.88;;;36.60;;
55330;SDS011;58851;42.984;20.336;2023-02-15T01:13:20;48.53;;;28.30;;
55330;SDS011;58851;42.984;20.336;2023-02-15T01:15:51;48.55;;;30.85;;
55330;SDS011;58851;42.984;20.336;2023-02-15T01:18:18;51.40;;;30.63;;
55330;SDS011;58851;42.984;20.336;2023-02-15T01:20:44;53.40;;;30.83;;
55330;SDS011;58851;42.984;20.336;2023-02-15T01:23:10;44.70;;;30.02;;
55330;SDS011;58851;42.984;20.336;2023-02-15T01:25:36;51.10;;;31.65;;
55330;SDS011;58851;42.984;20.336;2023-02-15T01:28:02;47.28;;;28.05;;
55330;SDS011;58851;42.984;20.336;2023-02-15T01:30:28;45.65;;;29.05;;
55330;SDS011;58851;42.984;20.336;2023-02-15T01:32:54;53.47;;;30.48;;
55330;SDS011;58851;42.984;20.336;2023-02-15T01:35:20;51.10;;;31.90;;
55330;SDS011;58851;42.984;20.336;2023-02-15T01:37:45;49.50;;;30.35;;
55330;SDS011;58851;42.984;20.336;2023-02-15T01:40:12;51.63;;;33.35;;
55330;SDS011;58851;42.984;20.336;2023-02-15T01:42:40;42.70;;;27.05;;
55330;SDS011;58851;42.984;20.336;2023-02-15T01:45:25;52.92;;;31.15;;
55330;SDS011;58851;42.984;20.336;2023-02-15T01:50:30;58.90;;;35.75;;
55330;SDS011;58851;42.984;20.336;2023-02-15T01:55:46;56.28;;;33.15;;
55330;SDS011;58851;42.984;20.336;2023-02-15T01:58:19;48.35;;;29.20;;
55330;SDS011;58851;42.984;20.336;2023-02-15T02:00:46;52.75;;;29.55;;
55330;SDS011;58851;42.984;20.336;2023-02-15T02:03:12;44.58;;;29.67;;
55330;SDS011;58851;42.984;20.336;2023-02-15T02:05:38;59.38;;;34.50;;
55330;SDS011;58851;42.984;20.336;2023-02-15T02:08:05;56.25;;;32.47;;
55330;SDS011;58851;42.984;20.336;2023-02-15T02:10:34;54.40;;;35.60;;
55330;SDS011;58851;42.984;20.336;2023-02-15T02:13:02;61.92;;;37.80;;
55330;SDS011;58851;42.984;20.336;2023-02-15T02:23:30;53.45;;;32.67;;
55330;SDS011;58851;42.984;20.336;2023-02-15T02:39:54;35.58;;;22.40;;
55330;SDS011;58851;42.984;20.336;2023-02-15T02:42:43;36.95;;;22.60;;
55330;SDS011;58851;42.984;20.336;2023-02-15T02:48:00;43.90;;;27.05;;
55330;SDS011;58851;42.984;20.336;2023-02-15T02:50:32;36.35;;;22.92;;
55330;SDS011;58851;42.984;20.336;2023-02-15T02:52:58;36.30;;;22.38;;
55330;SDS011;58851;42.984;20.336;2023-02-15T02:58:17;40.15;;;19.38;;
55330;SDS011;58851;42.984;20.336;2023-02-15T03:01:09;28.50;;;18.60;;
55330;SDS011;58851;42.984;20.336;2023-02-15T03:06:16;28.50;;;19.20;;
55330;SDS011;58851;42.984;20.336;2023-02-15T03:08:51;29.80;;;17.77;;
55330;SDS011;58851;42.984;20.336;2023-02-15T03:11:23;30.55;;;18.58;;
55330;SDS011;58851;42.984;20.336;2023-02-15T03:13:49;29.88;;;17.35;;
55330;SDS011;58851;42.984;20.336;2023-02-15T03:16:15;37.80;;;20.90;;
55330;SDS011;58851;42.984;20.336;2023-02-15T03:18:55;34.85;;;20.23;;
55330;SDS011;58851;42.984;20.336;2023-02-15T03:21:30;38.13;;;24.42;;
55330;SDS011;58851;42.984;20.336;2023-02-15T03:24:23;35.75;;;20.77;;
55330;SDS011;58851;42.984;20.336;2023-02-15T03:26:51;31.17;;;20.23;;
55330;SDS011;58851;42.984;20.336;2023-02-15T03:29:21;29.98;;;19.13;;
55330;SDS011;58851;42.984;20.336;2023-02-15T03:31:50;36.25;;;20.20;;
55330;SDS011;58851;42.984;20.336;2023-02-15T03:34:25;27.65;;;17.13;;
55330;SDS011;58851;42.984;20.336;2023-02-15T03:37:00;25.20;;;16.30;;
55330;SDS011;58851;42.984;20.336;2023-02-15T03:40:37;26.30;;;14.98;;
55330;SDS011;58851;42.984;20.336;2023-02-15T03:43:17;23.92;;;15.88;;
55330;SDS011;58851;42.984;20.336;2023-02-15T03:45:45;32.35;;;17.90;;
55330;SDS011;58851;42.984;20.336;2023-02-15T03:48:21;26.23;;;16.05;;
55330;SDS011;58851;42.984;20.336;2023-02-15T03:50:54;25.88;;;15.18;;
55330;SDS011;58851;42.984;20.336;2023-02-15T03:53:46;27.92;;;16.00;;
55330;SDS011;58851;42.984;20.336;2023-02-15T03:56:14;28.30;;;18.75;;
55330;SDS011;58851;42.984;20.336;2023-02-15T03:58:39;32.85;;;21.05;;
55330;SDS011;58851;42.984;20.336;2023-02-15T04:01:26;28.88;;;17.63;;
55330;SDS011;58851;42.984;20.336;2023-02-15T04:04:16;30.58;;;17.88;;
55330;SDS011;58851;42.984;20.336;2023-02-15T04:06:45;29.23;;;18.25;;
55330;SDS011;58851;42.984;20.336;2023-02-15T04:09:11;26.58;;;18.38;;
55330;SDS011;58851;42.984;20.336;2023-02-15T04:11:56;31.63;;;21.17;;
55330;SDS011;58851;42.984;20.336;2023-02-15T04:14:22;34.45;;;19.95;;
55330;SDS011;58851;42.984;20.336;2023-02-15T04:17:06;35.78;;;22.00;;
55330;SDS011;58851;42.984;20.336;2023-02-15T04:19:33;37.40;;;22.08;;
55330;SDS011;58851;42.984;20.336;2023-02-15T04:22:17;43.83;;;26.10;;
55330;SDS011;58851;42.984;20.336;2023-02-15T04:25:01;42.65;;;23.65;;
55330;SDS011;58851;42.984;20.336;2023-02-15T04:27:37;32.00;;;21.02;;
55330;SDS011;58851;42.984;20.336;2023-02-15T04:30:08;33.53;;;20.77;;
55330;SDS011;58851;42.984;20.336;2023-02-15T04:32:35;39.10;;;23.70;;
55330;SDS011;58851;42.984;20.336;2023-02-15T04:35:01;35.50;;;20.25;;
55330;SDS011;58851;42.984;20.336;2023-02-15T04:37:27;32.88;;;18.83;;
55330;SDS011;58851;42.984;20.336;2023-02-15T04:39:53;33.25;;;21.77;;
55330;SDS011;58851;42.984;20.336;2023-02-15T04:42:19;34.80;;;21.42;;
55330;SDS011;58851;42.984;20.336;2023-02-15T04:44:45;33.00;;;20.88;;
55330;SDS011;58851;42.984;20.336;2023-02-15T04:47:10;37.88;;;23.40;;
55330;SDS011;58851;42.984;20.336;2023-02-15T04:49:36;46.05;;;26.25;;
55330;SDS011;58851;42.984;20.336;2023-02-15T04:52:02;51.70;;;29.15;;
55330;SDS011;58851;42.984;20.336;2023-02-15T04:54:27;55.20;;;31.15;;
55330;SDS011;58851;42.984;20.336;2023-02-15T04:56:53;47.42;;;26.23;;
55330;SDS011;58851;42.984;20.336;2023-02-15T04:59:19;45.13;;;28.67;;
55330;SDS011;58851;42.984;20.336;2023-02-15T05:01:45;52.22;;;29.42;;
55330;SDS011;58851;42.984;20.336;2023-02-15T05:04:10;45.83;;;27.52;;
55330;SDS011;58851;42.984;20.336;2023-02-15T05:06:36;38.17;;;23.02;;
55330;SDS011;58851;42.984;20.336;2023-02-15T05:09:02;36.25;;;24.52;;
55330;SDS011;58851;42.984;20.336;2023-02-15T05:11:28;45.35;;;27.30;;
55330;SDS011;58851;42.984;20.336;2023-02-15T05:13:53;47.38;;;29.40;;
55330;SDS011;58851;42.984;20.336;2023-02-15T05:16:19;39.15;;;26.27;;
55330;SDS011;58851;42.984;20.336;2023-02-15T05:18:45;34.30;;;20.55;;
55330;SDS011;58851;42.984;20.336;2023-02-15T05:21:11;32.30;;;20.17;;
55330;SDS011;58851;42.984;20.336;2023-02-15T05:23:38;42.58;;;26.60;;
55330;SDS011;58851;42.984;20.336;2023-02-15T05:26:04;42.25;;;28.65;;
55330;SDS011;58851;42.984;20.336;2023-02-15T05:28:48;59.45;;;35.78;;
55330;SDS011;58851;42.984;20.336;2023-02-15T05:31:15;47.55;;;30.85;;
55330;SDS011;58851;42.984;20.336;2023-02-15T05:33:43;34.95;;;22.52;;
55330;SDS011;58851;42.984;20.336;2023-02-15T05:36:09;36.78;;;23.83;;
55330;SDS011;58851;42.984;20.336;2023-02-15T05:38:35;32.20;;;21.95;;
55330;SDS011;58851;42.984;20.336;2023-02-15T05:41:02;43.08;;;28.40;;
55330;SDS011;58851;42.984;20.336;2023-02-15T05:43:29;39.95;;;26.30;;
55330;SDS011;58851;42.984;20.336;2023-02-15T05:45:55;44.25;;;26.42;;
55330;SDS011;58851;42.984;20.336;2023-02-15T05:48:22;44.00;;;31.33;;
55330;SDS011;58851;42.984;20.336;2023-02-15T05:53:33;50.53;;;29.15;;
55330;SDS011;58851;42.984;20.336;2023-02-15T05:56:00;49.22;;;30.02;;
55330;SDS011;58851;42.984;20.336;2023-02-15T05:58:37;51.97;;;26.90;;
55330;SDS011;58851;42.984;20.336;2023-02-15T06:01:16;54.10;;;30.92;;
55330;SDS011;58851;42.984;20.336;2023-02-15T06:03:44;74.05;;;40.60;;
55330;SDS011;58851;42.984;20.336;2023-02-15T06:06:10;72.07;;;44.40;;
55330;SDS011;58851;42.984;20.336;2023-02-15T06:08:37;48.95;;;33.42;;
55330;SDS011;58851;42.984;20.336;2023-02-15T06:11:03;43.25;;;29.83;;
55330;SDS011;58851;42.984;20.336;2023-02-15T06:13:30;49.50;;;33.40;;
55330;SDS011;58851;42.984;20.336;2023-02-15T06:15:56;44.45;;;29.75;;
55330;SDS011;58851;42.984;20.336;2023-02-15T06:18:22;189.30;;;86.25;;
55330;SDS011;58851;42.984;20.336;2023-02-15T06:20:48;64.03;;;38.10;;
55330;SDS011;58851;42.984;20.336;2023-02-15T06:23:14;48.42;;;29.60;;
55330;SDS011;58851;42.984;20.336;2023-02-15T06:25:40;33.25;;;21.35;;
55330;SDS011;58851;42.984;20.336;2023-02-15T06:28:06;32.50;;;21.75;;
55330;SDS011;58851;42.984;20.336;2023-02-15T06:30:32;34.05;;;19.80;;
55330;SDS011;58851;42.984;20.336;2023-02-15T06:32:58;36.58;;;19.80;;
55330;SDS011;58851;42.984;20.336;2023-02-15T06:35:24;35.97;;;20.10;;
55330;SDS011;58851;42.984;20.336;2023-02-15T06:37:49;30.77;;;18.75;;
55330;SDS011;58851;42.984;20.336;2023-02-15T06:40:15;33.03;;;18.70;;
55330;SDS011;58851;42.984;20.336;2023-02-15T06:42:41;29.38;;;16.65;;
55330;SDS011;58851;42.984;20.336;2023-02-15T06:45:07;43.05;;;25.23;;
55330;SDS011;58851;42.984;20.336;2023-02-15T06:47:34;30.88;;;20.08;;
55330;SDS011;58851;42.984;20.336;2023-02-15T06:50:00;32.53;;;20.85;;
55330;SDS011;58851;42.984;20.336;2023-02-15T06:52:25;27.70;;;16.48;;
55330;SDS011;58851;42.984;20.336;2023-02-15T06:54:51;35.90;;;21.90;;
55330;SDS011;58851;42.984;20.336;2023-02-15T06:57:17;34.47;;;21.33;;
55330;SDS011;58851;42.984;20.336;2023-02-15T06:59:42;33.63;;;21.02;;
55330;SDS011;58851;42.984;20.336;2023-02-15T07:02:11;34.35;;;20.80;;
55330;SDS011;58851;42.984;20.336;2023-02-15T07:04:38;36.97;;;23.70;;
55330;SDS011;58851;42.984;20.336;2023-02-15T07:07:04;38.85;;;19.63;;
55330;SDS011;58851;42.984;20.336;2023-02-15T07:09:34;33.25;;;20.55;;
55330;SDS011;58851;42.984;20.336;2023-02-15T07:11:59;38.38;;;24.17;;
55330;SDS011;58851;42.984;20.336;2023-02-15T07:14:44;30.70;;;20.48;;
55330;SDS011;58851;42.984;20.336;2023-02-15T07:17:10;34.25;;;21.02;;
55330;SDS011;58851;42.984;20.336;2023-02-15T07:19:35;39.15;;;26.58;;
55330;SDS011;58851;42.984;20.336;2023-02-15T07:22:01;39.42;;;24.90;;
55330;SDS011;58851;42.984;20.336;2023-02-15T07:24:28;34.60;;;22.60;;
55330;SDS011;58851;42.984;20.336;2023-02-15T07:26:54;31.35;;;23.77;;
55330;SDS011;58851;42.984;20.336;2023-02-15T07:29:20;34.85;;;22.48;;
55330;SDS011;58851;42.984;20.336;2023-02-15T07:31:46;35.50;;;23.17;;
55330;SDS011;58851;42.984;20.336;2023-02-15T07:34:12;32.13;;;18.33;;
55330;SDS011;58851;42.984;20.336;2023-02-15T07:36:37;30.15;;;17.95;;
55330;SDS011;58851;42.984;20.336;2023-02-15T07:39:03;32.85;;;19.77;;
55330;SDS011;58851;42.984;20.336;2023-02-15T07:41:29;36.70;;;21.77;;
55330;SDS011;58851;42.984;20.336;2023-02-15T07:43:55;26.38;;;16.83;;
55330;SDS011;58851;42.984;20.336;2023-02-15T07:46:20;35.33;;;23.50;;
55330;SDS011;58851;42.984;20.336;2023-02-15T07:48:46;36.70;;;24.10;;
55330;SDS011;58851;42.984;20.336;2023-02-15T07:51:12;28.55;;;19.10;;
55330;SDS011;58851;42.984;20.336;2023-02-15T07:53:39;50.83;;;33.30;;
55330;SDS011;58851;42.984;20.336;2023-02-15T07:56:07;33.95;;;19.75;;
55330;SDS011;58851;42.984;20.336;2023-02-15T07:58:37;68.32;;;38.80;;
55330;SDS011;58851;42.984;20.336;2023-02-15T08:01:26;47.30;;;27.98;;
55330;SDS011;58851;42.984;20.336;2023-02-15T08:03:56;44.13;;;27.52;;
55330;SDS011;58851;42.984;20.336;2023-02-15T08:06:24;31.80;;;19.45;;
55330;SDS011;58851;42.984;20.336;2023-02-15T08:08:51;28.35;;;18.08;;
55330;SDS011;58851;42.984;20.336;2023-02-15T08:11:25;26.05;;;16.23;;
55330;SDS011;58851;42.984;20.336;2023-02-15T08:14:14;31.63;;;19.67;;
55330;SDS011;58851;42.984;20.336;2023-02-15T08:16:46;27.70;;;19.10;;
55330;SDS011;58851;42.984;20.336;2023-02-15T08:19:15;35.40;;;22.02;;
55330;SDS011;58851;42.984;20.336;2023-02-15T08:21:42;29.85;;;18.17;;
55330;SDS011;58851;42.984;20.336;2023-02-15T08:24:10;29.70;;;19.13;;
55330;SDS011;58851;42.984;20.336;2023-02-15T08:26:37;35.00;;;22.88;;
55330;SDS011;58851;42.984;20.336;2023-02-15T08:29:04;37.78;;;21.90;;
55330;SDS011;58851;42.984;20.336;2023-02-15T08:31:31;30.65;;;19.98;;
55330;SDS011;58851;42.984;20.336;2023-02-15T08:33:58;24.48;;;16.52;;
55330;SDS011;58851;42.984;20.336;2023-02-15T08:36:28;25.60;;;17.73;;
55330;SDS011;58851;42.984;20.336;2023-02-15T08:39:00;24.70;;;18.75;;
55330;SDS011;58851;42.984;20.336;2023-02-15T08:41:28;22.98;;;16.80;;
55330;SDS011;58851;42.984;20.336;2023-02-15T08:44:00;28.67;;;19.45;;
55330;SDS011;58851;42.984;20.336;2023-02-15T08:46:29;27.05;;;18.83;;
55330;SDS011;58851;42.984;20.336;2023-02-15T08:48:57;28.50;;;18.38;;
55330;SDS011;58851;42.984;20.336;2023-02-15T08:51:26;29.40;;;21.73;;
55330;SDS011;58851;42.984;20.336;2023-02-15T08:53:57;32.40;;;21.00;;
55330;SDS011;58851;42.984;20.336;2023-02-15T08:56:28;22.77;;;16.15;;
55330;SDS011;58851;42.984;20.336;2023-02-15T08:58:57;27.00;;;18.05;;
55330;SDS011;58851;42.984;20.336;2023-02-15T09:01:26;28.35;;;20.63;;
55330;SDS011;58851;42.984;20.336;2023-02-15T09:04:01;30.55;;;21.48;;
55330;SDS011;58851;42.984;20.336;2023-02-15T09:06:44;32.10;;;20.85;;
55330;SDS011;58851;42.984;20.336;2023-02-15T09:09:15;29.08;;;18.70;;
55330;SDS011;58851;42.984;20.336;2023-02-15T09:11:42;30.38;;;22.23;;
55330;SDS011;58851;42.984;20.336;2023-02-15T09:14:11;33.28;;;22.33;;
55330;SDS011;58851;42.984;20.336;2023-02-15T09:16:38;31.55;;;20.27;;
55330;SDS011;58851;42.984;20.336;2023-02-15T09:19:05;33.97;;;22.95;;
55330;SDS011;58851;42.984;20.336;2023-02-15T09:21:32;38.40;;;25.40;;
55330;SDS011;58851;42.984;20.336;2023-02-15T09:24:02;63.97;;;40.33;;
55330;SDS011;58851;42.984;20.336;2023-02-15T09:26:30;41.60;;;28.30;;
55330;SDS011;58851;42.984;20.336;2023-02-15T09:28:58;28.00;;;19.45;;
55330;SDS011;58851;42.984;20.336;2023-02-15T09:31:27;25.83;;;17.60;;
55330;SDS011;58851;42.984;20.336;2023-02-15T09:33:54;32.50;;;23.55;;
55330;SDS011;58851;42.984;20.336;2023-02-15T09:38:57;32.25;;;22.35;;
55330;SDS011;58851;42.984;20.336;2023-02-15T09:53:49;38.13;;;23.67;;
55330;SDS011;58851;42.984;20.336;2023-02-15T09:56:55;33.10;;;21.48;;
55330;SDS011;58851;42.984;20.336;2023-02-15T10:13:30;31.73;;;21.73;;
55330;SDS011;58851;42.984;20.336;2023-02-15T10:18:52;34.72;;;22.58;;
55330;SDS011;58851;42.984;20.336;2023-02-15T10:24:39;59.47;;;45.10;;
55330;SDS011;58851;42.984;20.336;2023-02-15T10:27:19;28.53;;;18.70;;
55330;SDS011;58851;42.984;20.336;2023-02-15T10:29:53;44.75;;;27.42;;
55330;SDS011;58851;42.984;20.336;2023-02-15T10:49:09;29.13;;;19.25;;
55330;SDS011;58851;42.984;20.336;2023-02-15T10:59:50;31.67;;;21.98;;
55330;SDS011;58851;42.984;20.336;2023-02-15T11:05:02;32.28;;;21.52;;
55330;SDS011;58851;42.984;20.336;2023-02-15T11:07:53;31.48;;;19.85;;
55330;SDS011;58851;42.984;20.336;2023-02-15T11:13:03;35.40;;;23.75;;
55330;SDS011;58851;42.984;20.336;2023-02-15T11:18:23;40.90;;;27.55;;
55330;SDS011;58851;42.984;20.336;2023-02-15T11:21:54;52.95;;;32.53;;
55330;SDS011;58851;42.984;20.336;2023-02-15T11:23:52;46.17;;;30.90;;
55330;SDS011;58851;42.984;20.336;2023-02-15T11:26:36;42.58;;;24.50;;
55330;SDS011;58851;42.984;20.336;2023-02-15T11:31:43;41.08;;;24.98;;
55330;SDS011;58851;42.984;20.336;2023-02-15T11:34:23;42.22;;;26.52;;
55330;SDS011;58851;42.984;20.336;2023-02-15T11:37:11;32.25;;;20.30;;
55330;SDS011;58851;42.984;20.336;2023-02-15T11:39:42;35.05;;;23.48;;
55330;SDS011;58851;42.984;20.336;2023-02-15T11:42:16;33.50;;;23.52;;
55330;SDS011;58851;42.984;20.336;2023-02-15T11:44:59;31.10;;;20.08;;
55330;SDS011;58851;42.984;20.336;2023-02-15T11:47:32;43.42;;;27.05;;
55330;SDS011;58851;42.984;20.336;2023-02-15T11:49:59;35.47;;;21.95;;
55330;SDS011;58851;42.984;20.336;2023-02-15T11:52:24;52.88;;;36.00;;
55330;SDS011;58851;42.984;20.336;2023-02-15T11:54:51;30.40;;;20.33;;
55330;SDS011;58851;42.984;20.336;2023-02-15T11:57:19;27.02;;;18.02;;
55330;SDS011;58851;42.984;20.336;2023-02-15T12:03:00;26.53;;;18.70;;
55330;SDS011;58851;42.984;20.336;2023-02-15T12:05:33;32.13;;;23.65;;
55330;SDS011;58851;42.984;20.336;2023-02-15T12:08:02;42.22;;;27.40;;
55330;SDS011;58851;42.984;20.336;2023-02-15T12:10:36;38.58;;;28.13;;
55330;SDS011;58851;42.984;20.336;2023-02-15T12:13:14;22.60;;;16.05;;
55330;SDS011;58851;42.984;20.336;2023-02-15T12:15:43;25.98;;;18.05;;
55330;SDS011;58851;42.984;20.336;2023-02-15T12:20:47;21.33;;;15.52;;
55330;SDS011;58851;42.984;20.336;2023-02-15T12:23:15;26.85;;;17.60;;
55330;SDS011;58851;42.984;20.336;2023-02-15T12:25:52;20.13;;;14.48;;
55330;SDS011;58851;42.984;20.336;2023-02-15T12:30:57;23.52;;;15.57;;
55330;SDS011;58851;42.984;20.336;2023-02-15T12:33:35;19.33;;;13.90;;
55330;SDS011;58851;42.984;20.336;2023-02-15T12:36:11;19.15;;;13.93;;
55330;SDS011;58851;42.984;20.336;2023-02-15T12:38:40;21.60;;;15.23;;
55330;SDS011;58851;42.984;20.336;2023-02-15T12:41:40;40.17;;;24.42;;
55330;SDS011;58851;42.984;20.336;2023-02-15T12:44:18;16.17;;;11.10;;
55330;SDS011;58851;42.984;20.336;2023-02-15T12:49:41;42.97;;;28.38;;
55330;SDS011;58851;42.984;20.336;2023-02-15T12:54:46;32.22;;;19.33;;
55330;SDS011;58851;42.984;20.336;2023-02-15T12:57:13;68.82;;;42.22;;
55330;SDS011;58851;42.984;20.336;2023-02-15T13:00:11;41.22;;;24.98;;
55330;SDS011;58851;42.984;20.336;2023-02-15T13:02:52;49.22;;;21.05;;
55330;SDS011;58851;42.984;20.336;2023-02-15T13:07:46;46.25;;;32.75;;
55330;SDS011;58851;42.984;20.336;2023-02-15T13:10:24;35.20;;;22.25;;
55330;SDS011;58851;42.984;20.336;2023-02-15T13:12:54;26.15;;;18.58;;
55330;SDS011;58851;42.984;20.336;2023-02-15T13:15:27;38.55;;;25.95;;
55330;SDS011;58851;42.984;20.336;2023-02-15T13:18:16;47.60;;;31.80;;
55330;SDS011;58851;42.984;20.336;2023-02-15T13:20:48;50.75;;;32.45;;
55330;SDS011;58851;42.984;20.336;2023-02-15T13:23:24;49.40;;;33.10;;
55330;SDS011;58851;42.984;20.336;2023-02-15T13:25:52;21.63;;;16.75;;
55330;SDS011;58851;42.984;20.336;2023-02-15T13:28:31;24.80;;;16.48;;
55330;SDS011;58851;42.984;20.336;2023-02-15T13:31:12;18.55;;;12.80;;
55330;SDS011;58851;42.984;20.336;2023-02-15T13:33:46;17.85;;;13.25;;
55330;SDS011;58851;42.984;20.336;2023-02-15T13:36:21;18.00;;;13.93;;
55330;SDS011;58851;42.984;20.336;2023-02-15T14:01:02;20.30;;;14.05;;
55330;SDS011;58851;42.984;20.336;2023-02-15T14:06:50;24.88;;;16.80;;
55330;SDS011;58851;42.984;20.336;2023-02-15T14:34:07;19.15;;;12.85;;
55330;SDS011;58851;42.984;20.336;2023-02-15T14:37:08;19.48;;;14.40;;
55330;SDS011;58851;42.984;20.336;2023-02-15T14:42:33;55.33;;;33.08;;
55330;SDS011;58851;42.984;20.336;2023-02-15T14:47:39;25.67;;;12.65;;
55330;SDS011;58851;42.984;20.336;2023-02-15T14:58:35;23.80;;;15.27;;
55330;SDS011;58851;42.984;20.336;2023-02-15T15:01:31;36.53;;;22.80;;
55330;SDS011;58851;42.984;20.336;2023-02-15T15:04:00;51.40;;;31.85;;
55330;SDS011;58851;42.984;20.336;2023-02-15T15:06:30;54.92;;;33.75;;
55330;SDS011;58851;42.984;20.336;2023-02-15T15:09:09;35.55;;;23.13;;
55330;SDS011;58851;42.984;20.336;2023-02-15T15:11:38;44.80;;;31.92;;
55330;SDS011;58851;42.984;20.336;2023-02-15T15:14:10;50.88;;;31.88;;
55330;SDS011;58851;42.984;20.336;2023-02-15T15:16:56;46.28;;;30.92;;
55330;SDS011;58851;42.984;20.336;2023-02-15T15:22:32;126.45;;;74.22;;
55330;SDS011;58851;42.984;20.336;2023-02-15T15:41:08;98.03;;;60.45;;
55330;SDS011;58851;42.984;20.336;2023-02-15T15:49:24;120.93;;;69.15;;
55330;SDS011;58851;42.984;20.336;2023-02-15T15:51:55;116.30;;;69.55;;
55330;SDS011;58851;42.984;20.336;2023-02-15T15:54:26;78.47;;;50.17;;
55330;SDS011;58851;42.984;20.336;2023-02-15T15:59:21;81.68;;;50.33;;
55330;SDS011;58851;42.984;20.336;2023-02-15T16:01:50;66.72;;;42.28;;
55330;SDS011;58851;42.984;20.336;2023-02-15T16:04:23;75.75;;;47.90;;
55330;SDS011;58851;42.984;20.336;2023-02-15T16:06:57;84.13;;;52.47;;
55330;SDS011;58851;42.984;20.336;2023-02-15T16:09:24;90.65;;;55.97;;
55330;SDS011;58851;42.984;20.336;2023-02-15T16:11:53;109.93;;;68.57;;
55330;SDS011;58851;42.984;20.336;2023-02-15T16:14:36;117.78;;;69.88;;
55330;SDS011;58851;42.984;20.336;2023-02-15T16:17:08;97.00;;;61.75;;
55330;SDS011;58851;42.984;20.336;2023-02-15T16:19:42;138.23;;;83.03;;
55330;SDS011;58851;42.984;20.336;2023-02-15T16:22:15;113.35;;;71.13;;
55330;SDS011;58851;42.984;20.336;2023-02-15T16:27:35;183.32;;;111.28;;
55330;SDS011;58851;42.984;20.336;2023-02-15T16:32:45;149.93;;;86.80;;
55330;SDS011;58851;42.984;20.336;2023-02-15T16:35:16;108.40;;;68.68;;
55330;SDS011;58851;42.984;20.336;2023-02-15T16:37:43;119.28;;;61.75;;
55330;SDS011;58851;42.984;20.336;2023-02-15T16:40:35;97.60;;;57.85;;
55330;SDS011;58851;42.984;20.336;2023-02-15T16:43:22;125.95;;;74.88;;
55330;SDS011;58851;42.984;20.336;2023-02-15T16:45:51;127.72;;;81.90;;
55330;SDS011;58851;42.984;20.336;2023-02-15T16:48:23;130.05;;;88.82;;
55330;SDS011;58851;42.984;20.336;2023-02-15T16:50:51;170.55;;;110.10;;
55330;SDS011;58851;42.984;20.336;2023-02-15T16:53:21;129.48;;;80.00;;
55330;SDS011;58851;42.984;20.336;2023-02-15T16:55:59;113.75;;;73.57;;
55330;SDS011;58851;42.984;20.336;2023-02-15T16:58:30;122.47;;;81.38;;
55330;SDS011;58851;42.984;20.336;2023-02-15T17:01:02;114.70;;;76.05;;
55330;SDS011;58851;42.984;20.336;2023-02-15T17:03:32;249.75;;;143.45;;
55330;SDS011;58851;42.984;20.336;2023-02-15T17:05:59;280.20;;;152.18;;
55330;SDS011;58851;42.984;20.336;2023-02-15T17:08:31;177.77;;;108.70;;
55330;SDS011;58851;42.984;20.336;2023-02-15T17:13:31;110.22;;;69.38;;
55330;SDS011;58851;42.984;20.336;2023-02-15T17:18:32;114.20;;;73.38;;
55330;SDS011;58851;42.984;20.336;2023-02-15T17:21:11;105.57;;;65.97;;
55330;SDS011;58851;42.984;20.336;2023-02-15T17:23:49;111.82;;;65.85;;
55330;SDS011;58851;42.984;20.336;2023-02-15T17:31:18;127.93;;;84.60;;
55330;SDS011;58851;42.984;20.336;2023-02-15T17:33:45;155.25;;;92.13;;
55330;SDS011;58851;42.984;20.336;2023-02-15T17:36:17;175.07;;;112.28;;
55330;SDS011;58851;42.984;20.336;2023-02-15T17:41:43;163.40;;;99.40;;
55330;SDS011;58851;42.984;20.336;2023-02-15T17:44:09;143.65;;;97.38;;
55330;SDS011;58851;42.984;20.336;2023-02-15T17:46:40;107.85;;;72.45;;
55330;SDS011;58851;42.984;20.336;2023-02-15T17:49:11;160.52;;;96.07;;
55330;SDS011;58851;42.984;20.336;2023-02-15T17:51:47;149.77;;;94.85;;
55330;SDS011;58851;42.984;20.336;2023-02-15T17:54:13;130.52;;;80.72;;
55330;SDS011;58851;42.984;20.336;2023-02-15T17:56:57;114.53;;;74.50;;
55330;SDS011;58851;42.984;20.336;2023-02-15T17:59:29;125.95;;;80.70;;
55330;SDS011;58851;42.984;20.336;2023-02-15T18:01:55;150.95;;;103.70;;
55330;SDS011;58851;42.984;20.336;2023-02-15T18:04:39;213.65;;;132.07;;
55330;SDS011;58851;42.984;20.336;2023-02-15T18:07:24;165.88;;;99.95;;
55330;SDS011;58851;42.984;20.336;2023-02-15T18:10:12;166.73;;;106.53;;
55330;SDS011;58851;42.984;20.336;2023-02-15T18:13:01;165.57;;;98.20;;
55330;SDS011;58851;42.984;20.336;2023-02-15T18:15:27;218.57;;;134.02;;
55330;SDS011;58851;42.984;20.336;2023-02-15T18:17:53;195.80;;;120.63;;
55330;SDS011;58851;42.984;20.336;2023-02-15T18:20:23;188.65;;;114.18;;
55330;SDS011;58851;42.984;20.336;2023-02-15T18:22:58;381.48;;;218.73;;